Time;durP1;ratioP1;P1;durP2;ratioP2;P2;SDS_P1;SDS_P2;PMS_P1;PMS_P2;Temp;Humidity;BMP_temperature;BMP_pressure;BME280_temperature;BME280_humidity;BME280_pressure;Samples;Min_cycle;Max_cycle;Signal;HPM_P1;HPM_P2
2022/08/24 00:00:36;;;;;;;24.08;21.88;;;19.50;99.90;;;;;;4590754;19;20006;-35
2022/08/24 00:02:11;;;;;;;21.85;19.73;;;19.50;99.90;;;;;;4590049;19;20014;-34
2022/08/24 00:03:44;;;;;;;26.63;24.08;;;19.50;99.90;;;;;;4589939;19;20039;-34
2022/08/24 00:05:16;;;;;;;22.35;20.25;;;19.40;99.90;;;;;;4588726;19;20019;-35
2022/08/24 00:06:48;;;;;;;22.73;20.58;;;19.40;99.90;;;;;;4589326;19;20450;-35
2022/08/24 00:08:20;;;;;;;19.95;18.23;;;19.40;99.90;;;;;;4589997;19;20011;-37
2022/08/24 00:09:51;;;;;;;21.15;19.08;;;19.40;99.90;;;;;;4588654;19;20109;-35
2022/08/24 00:11:22;;;;;;;23.20;21.00;;;19.40;99.90;;;;;;4589903;19;20022;-36
2022/08/24 00:12:53;;;;;;;22.75;20.60;;;19.40;99.90;;;;;;4589728;19;20028;-34
2022/08/24 00:14:24;;;;;;;21.67;19.65;;;19.40;99.90;;;;;;4592466;19;20021;-36
2022/08/24 00:15:55;;;;;;;23.42;20.73;;;19.40;99.90;;;;;;4594724;19;20018;-35
2022/08/24 00:17:26;;;;;;;24.80;22.35;;;19.40;99.90;;;;;;4595022;19;20011;-38
2022/08/24 00:18:59;;;;;;;22.83;20.60;;;19.40;99.90;;;;;;4594743;19;20014;-35
2022/08/24 00:20:30;;;;;;;23.73;21.42;;;19.40;99.90;;;;;;4594220;19;20018;-34
2022/08/24 00:22:02;;;;;;;21.58;19.55;;;19.40;99.90;;;;;;4593205;19;20475;-35
2022/08/24 00:23:33;;;;;;;24.63;22.05;;;19.40;99.90;;;;;;4594572;19;20474;-35
2022/08/24 00:25:06;;;;;;;25.17;22.85;;;19.40;99.90;;;;;;4594904;19;20014;-37
2022/08/24 00:26:37;;;;;;;24.48;22.02;;;19.50;99.90;;;;;;4594193;19;20010;-35
2022/08/24 00:28:08;;;;;;;24.45;22.13;;;19.50;99.90;;;;;;4594590;19;20014;-34
2022/08/24 00:29:39;;;;;;;23.48;21.23;;;19.50;99.90;;;;;;4594722;19;20387;-36
2022/08/24 00:31:11;;;;;;;24.25;21.92;;;19.50;99.90;;;;;;4594023;19;20400;-38
2022/08/24 00:32:43;;;;;;;25.00;22.55;;;19.50;99.90;;;;;;4592663;19;20011;-35
2022/08/24 00:34:14;;;;;;;;;;;19.50;99.90;;;;;;4593910;19;20452;-36
2022/08/24 00:35:45;;;;;;;26.97;24.37;;;19.50;99.90;;;;;;4594245;19;19926;-35
2022/08/24 00:37:16;;;;;;;26.77;24.17;;;19.50;99.90;;;;;;4593790;19;20381;-36
2022/08/24 00:38:47;;;;;;;27.60;24.75;;;19.50;99.90;;;;;;4593057;19;20011;-39
2022/08/24 00:40:39;;;;;;;27.60;24.52;;;19.50;99.90;;;;;;4592858;19;20481;-35
2022/08/24 00:42:10;;;;;;;28.20;25.30;;;19.50;99.90;;;;;;4593628;19;20349;-34
2022/08/24 00:43:57;;;;;;;28.10;25.17;;;19.50;99.90;;;;;;4593341;19;20006;-35
2022/08/24 00:45:29;;;;;;;29.75;26.75;;;19.50;99.90;;;;;;4592536;19;20482;-34
2022/08/24 00:47:03;;;;;;;29.20;26.40;;;19.60;99.90;;;;;;4592580;19;20010;-35
2022/08/24 00:48:36;;;;;;;29.35;26.35;;;19.50;99.90;;;;;;4593074;19;20034;-38
2022/08/24 00:50:11;;;;;;;31.10;27.92;;;19.60;99.90;;;;;;4592715;19;20485;-35
2022/08/24 00:52:18;;;;;;;29.33;26.42;;;19.60;99.90;;;;;;4592439;19;20467;-35
2022/08/24 00:53:52;;;;;;;31.73;28.52;;;19.60;99.90;;;;;;4593709;19;20463;-35
2022/08/24 00:55:30;;;;;;;31.45;28.27;;;19.60;99.90;;;;;;4592391;19;20015;-35
2022/08/24 00:57:03;;;;;;;31.42;28.13;;;19.60;99.90;;;;;;4592894;19;20018;-35
2022/08/24 00:58:36;;;;;;;32.65;29.27;;;19.50;99.90;;;;;;4592846;19;20082;-34
2022/08/24 01:00:13;;;;;;;33.55;30.08;;;19.60;99.90;;;;;;4592274;19;20023;-38
2022/08/24 01:01:45;;;;;;;32.00;28.60;;;19.60;99.90;;;;;;4593115;19;20410;-35
2022/08/24 01:03:16;;;;;;;32.65;29.40;;;19.60;99.90;;;;;;4592355;19;20022;-38
2022/08/24 01:04:56;;;;;;;33.67;30.25;;;19.60;99.90;;;;;;4592630;19;20072;-37
2022/08/24 01:06:27;;;;;;;32.72;29.20;;;19.60;99.90;;;;;;4593032;19;20010;-35
2022/08/24 01:07:59;;;;;;;;;;;19.60;99.90;;;;;;4593077;19;20038;-36
2022/08/24 01:09:30;;;;;;;35.33;31.52;;;19.60;99.90;;;;;;4592390;19;20328;-38
2022/08/24 01:11:03;;;;;;;33.70;30.38;;;19.60;99.90;;;;;;4593090;19;20031;-37
2022/08/24 01:12:34;;;;;;;35.10;31.45;;;19.60;99.90;;;;;;4591451;19;20014;-36
2022/08/24 01:14:07;;;;;;;30.50;27.40;;;19.60;99.90;;;;;;4591995;19;20023;-35
2022/08/24 01:15:41;;;;;;;32.00;28.50;;;19.60;99.90;;;;;;4592646;19;20372;-36
2022/08/24 01:19:03;;;;;;;33.50;30.15;;;19.60;99.90;;;;;;4590859;19;20011;-37
2022/08/24 01:20:35;;;;;;;32.85;29.52;;;19.60;99.90;;;;;;4591433;19;20014;-39
2022/08/24 01:22:45;;;;;;;35.75;32.00;;;19.60;99.90;;;;;;4591934;19;20018;-35
2022/08/24 01:24:16;;;;;;;35.47;31.83;;;19.60;99.90;;;;;;4592113;19;20011;-37
2022/08/24 01:25:47;;;;;;;34.40;31.10;;;19.60;99.90;;;;;;4591020;19;20010;-35
2022/08/24 01:27:18;;;;;;;32.35;29.25;;;19.60;99.90;;;;;;4591955;19;20333;-34
2022/08/24 01:28:51;;;;;;;34.30;30.85;;;19.60;99.90;;;;;;4591876;19;20350;-36
2022/08/24 01:30:22;;;;;;;35.97;32.30;;;19.60;99.90;;;;;;4591712;19;20007;-35
2022/08/24 01:31:53;;;;;;;36.40;32.67;;;19.60;99.90;;;;;;4591941;19;20057;-34
2022/08/24 01:33:28;;;;;;;35.83;32.20;;;19.60;99.90;;;;;;4590440;19;20014;-34
2022/08/24 01:34:59;;;;;;;36.47;32.67;;;19.60;99.90;;;;;;4592407;19;20015;-34
2022/08/24 01:36:44;;;;;;;38.58;34.58;;;19.60;99.90;;;;;;4592008;19;20006;-34
2022/08/24 01:38:16;;;;;;;39.85;35.55;;;19.60;99.90;;;;;;4592497;19;20007;-35
2022/08/24 01:39:47;;;;;;;41.10;35.95;;;19.60;99.90;;;;;;4592396;19;20022;-37
2022/08/24 01:41:18;;;;;;;;;;;19.70;99.90;;;;;;4592413;19;20104;-35
2022/08/24 01:42:51;;;;;;;43.58;37.25;;;19.60;99.90;;;;;;4592535;19;19956;-35
2022/08/24 01:44:23;;;;;;;42.30;36.40;;;19.60;99.90;;;;;;4590568;19;20015;-35
2022/08/24 01:45:54;;;;;;;;;;;19.70;99.90;;;;;;4592240;19;20018;-36
2022/08/24 01:47:25;;;;;;;43.17;38.47;;;19.70;99.90;;;;;;4592264;19;20297;-35
2022/08/24 01:48:57;;;;;;;46.50;38.80;;;19.70;99.90;;;;;;4591756;19;20010;-35
2022/08/24 01:50:28;;;;;;;43.38;37.33;;;19.70;99.90;;;;;;4591376;19;20018;-37
2022/08/24 01:51:59;;;;;;;40.85;36.05;;;19.70;99.90;;;;;;4591804;19;20017;-35
2022/08/24 01:53:31;;;;;;;43.15;37.50;;;19.70;99.90;;;;;;4590369;19;20010;-35
2022/08/24 01:55:04;;;;;;;44.22;37.97;;;19.70;99.90;;;;;;4592685;19;19995;-37
2022/08/24 01:56:36;;;;;;;36.47;32.03;;;19.70;99.90;;;;;;4591316;19;20007;-37
2022/08/24 01:58:07;;;;;;;35.83;32.00;;;19.70;99.90;;;;;;4592089;19;20047;-36
2022/08/24 01:59:38;;;;;;;35.55;31.63;;;19.70;99.90;;;;;;4592135;19;20010;-35
2022/08/24 02:01:09;;;;;;;37.55;33.42;;;19.70;99.90;;;;;;4592307;19;20336;-35
2022/08/24 02:02:40;;;;;;;35.95;31.73;;;19.70;99.90;;;;;;4591144;19;20022;-35
2022/08/24 02:04:12;;;;;;;33.58;30.05;;;19.70;99.90;;;;;;4591857;19;20023;-35
2022/08/24 02:05:43;;;;;;;36.08;31.27;;;19.60;99.90;;;;;;4591499;19;20007;-37
2022/08/24 02:07:14;;;;;;;34.53;30.92;;;19.70;99.90;;;;;;4592568;19;20035;-35
2022/08/24 02:08:45;;;;;;;32.60;29.17;;;19.70;99.90;;;;;;4591880;19;20011;-39
2022/08/24 02:10:17;;;;;;;34.13;30.67;;;19.70;99.90;;;;;;4592533;19;20017;-35
2022/08/24 02:11:48;;;;;;;32.40;28.98;;;19.70;99.90;;;;;;4591089;19;20029;-35
2022/08/24 02:13:19;;;;;;;33.15;29.70;;;19.70;99.90;;;;;;4590417;19;20019;-37
2022/08/24 02:14:50;;;;;;;32.92;29.48;;;19.70;99.90;;;;;;4590900;19;20015;-35
2022/08/24 02:16:22;;;;;;;34.63;31.02;;;19.70;99.90;;;;;;4591187;19;20011;-37
2022/08/24 02:17:53;;;;;;;33.83;30.20;;;19.70;99.90;;;;;;4591527;19;20344;-35
2022/08/24 02:19:26;;;;;;;;;;;19.70;99.90;;;;;;4593318;19;20066;-37
2022/08/24 02:20:57;;;;;;;34.58;30.73;;;19.70;99.90;;;;;;4592018;19;19930;-35
2022/08/24 02:22:28;;;;;;;32.08;28.67;;;19.70;99.90;;;;;;4592471;19;20018;-35
2022/08/24 02:23:59;;;;;;;32.85;29.13;;;19.70;99.90;;;;;;4592512;19;20009;-36
2022/08/24 02:25:30;;;;;;;31.98;28.58;;;19.70;99.90;;;;;;4591761;19;20018;-36
2022/08/24 02:27:02;;;;;;;;;;;19.70;99.90;;;;;;4592774;19;20014;-37
2022/08/24 02:28:33;;;;;;;33.95;30.33;;;19.70;99.90;;;;;;4591885;19;19910;-35
2022/08/24 02:30:05;;;;;;;;;;;19.70;99.90;;;;;;4593322;19;20040;-35
2022/08/24 02:31:36;;;;;;;31.33;27.92;;;19.70;99.90;;;;;;4591524;19;19993;-35
2022/08/24 02:33:07;;;;;;;33.20;29.60;;;19.70;99.90;;;;;;4590031;19;20015;-35
2022/08/24 02:34:38;;;;;;;33.55;29.77;;;19.70;99.90;;;;;;4590645;19;20074;-35
2022/08/24 02:36:10;;;;;;;33.28;29.73;;;19.70;99.90;;;;;;4590754;19;20452;-36
2022/08/24 02:37:42;;;;;;;30.95;27.85;;;19.60;99.90;;;;;;4589238;19;20417;-35
2022/08/24 02:39:13;;;;;;;34.80;30.10;;;19.70;99.90;;;;;;4591249;19;20026;-38
2022/08/24 02:40:44;;;;;;;35.10;31.58;;;19.60;99.90;;;;;;4591740;19;20035;-36
2022/08/24 02:42:15;;;;;;;35.83;31.80;;;19.70;99.90;;;;;;4591223;19;20015;-37
2022/08/24 02:43:47;;;;;;;35.95;30.35;;;19.70;99.90;;;;;;4591214;19;20014;-35
2022/08/24 02:45:18;;;;;;;35.35;30.73;;;19.60;99.90;;;;;;4591848;19;20015;-35
2022/08/24 02:46:49;;;;;;;35.25;31.55;;;19.70;99.90;;;;;;4590736;19;20010;-35
2022/08/24 02:48:20;;;;;;;36.83;30.42;;;19.60;99.90;;;;;;4590937;19;20507;-36
2022/08/24 02:49:51;;;;;;;33.47;29.95;;;19.70;99.90;;;;;;4591619;19;20018;-39
2022/08/24 02:51:30;;;;;;;34.22;30.50;;;19.70;99.90;;;;;;4590644;19;20015;-35
2022/08/24 02:53:02;;;;;;;32.92;29.10;;;19.70;99.90;;;;;;4589308;19;20021;-35
2022/08/24 02:54:33;;;;;;;35.90;31.98;;;19.70;99.90;;;;;;4591010;19;20007;-36
2022/08/24 02:56:06;;;;;;;35.58;31.77;;;19.70;99.90;;;;;;4590330;19;20010;-36
2022/08/24 02:57:37;;;;;;;34.08;30.48;;;19.60;99.90;;;;;;4591067;19;20014;-35
2022/08/24 02:59:08;;;;;;;33.10;29.60;;;19.70;99.90;;;;;;4588909;19;20011;-35
2022/08/24 03:00:39;;;;;;;35.40;31.55;;;19.70;99.90;;;;;;4590452;19;20006;-36
2022/08/24 03:02:10;;;;;;;35.65;30.65;;;19.70;99.90;;;;;;4590201;19;20006;-35
2022/08/24 03:03:42;;;;;;;34.47;30.67;;;19.70;99.90;;;;;;4591132;19;20011;-35
2022/08/24 03:05:14;;;;;;;33.47;29.90;;;19.70;99.90;;;;;;4591351;19;20039;-35
2022/08/24 03:06:45;;;;;;;34.72;31.13;;;19.70;99.90;;;;;;4589819;19;20038;-35
2022/08/24 03:08:17;;;;;;;34.65;30.67;;;19.70;99.90;;;;;;4590476;19;20021;-35
2022/08/24 03:09:48;;;;;;;33.55;29.95;;;19.70;99.90;;;;;;4591472;19;20023;-36
2022/08/24 03:11:20;;;;;;;33.25;29.65;;;19.60;99.90;;;;;;4590801;19;20011;-36
2022/08/24 03:12:51;;;;;;;32.55;29.10;;;19.70;99.90;;;;;;4590452;19;20015;-36
2022/08/24 03:14:23;;;;;;;31.48;27.85;;;19.70;99.90;;;;;;4591346;19;20014;-37
2022/08/24 03:15:55;;;;;;;30.33;26.77;;;19.70;99.90;;;;;;4591484;19;20018;-35
2022/08/24 03:17:26;;;;;;;31.17;27.45;;;19.60;99.90;;;;;;4589468;19;20374;-35
2022/08/24 03:18:57;;;;;;;30.70;27.38;;;19.60;99.90;;;;;;4589879;19;20033;-38
2022/08/24 03:20:28;;;;;;;29.08;25.83;;;19.60;99.90;;;;;;4589713;19;20011;-35
2022/08/24 03:21:59;;;;;;;;;;;19.60;99.90;;;;;;4590746;19;20022;-35
2022/08/24 03:23:32;;;;;;;31.27;27.27;;;19.60;99.90;;;;;;4590598;19;19915;-35
2022/08/24 03:25:04;;;;;;;32.33;28.88;;;19.60;99.90;;;;;;4590730;19;20037;-35
2022/08/24 03:26:35;;;;;;;32.28;28.58;;;19.60;99.90;;;;;;4589669;19;20027;-35
2022/08/24 03:28:07;;;;;;;32.20;28.83;;;19.60;99.90;;;;;;4589272;19;20022;-35
2022/08/24 03:29:38;;;;;;;;;;;19.60;99.90;;;;;;4590427;19;20034;-35
2022/08/24 03:31:09;;;;;;;35.50;31.55;;;19.60;99.90;;;;;;4589952;19;19914;-35
2022/08/24 03:32:40;;;;;;;36.30;30.40;;;19.60;99.90;;;;;;4590775;19;20006;-35
2022/08/24 03:34:12;;;;;;;34.75;31.02;;;19.70;99.90;;;;;;4589247;19;20086;-35
2022/08/24 03:35:43;;;;;;;35.58;31.58;;;19.60;99.90;;;;;;4589987;19;20381;-35
2022/08/24 03:37:15;;;;;;;35.65;31.35;;;19.60;99.90;;;;;;4590507;19;20017;-34
2022/08/24 03:38:46;;;;;;;32.70;29.00;;;19.60;99.90;;;;;;4590964;19;20006;-35
2022/08/24 03:40:19;;;;;;;33.22;29.73;;;19.60;99.90;;;;;;4589251;19;20018;-34
2022/08/24 03:41:50;;;;;;;34.42;29.95;;;19.60;99.90;;;;;;4590148;19;20373;-35
2022/08/24 03:45:11;;;;;;;32.35;28.95;;;19.60;99.90;;;;;;4590142;19;20334;-39
2022/08/24 03:46:44;;;;;;;32.28;28.88;;;19.60;99.90;;;;;;4588917;19;20027;-35
2022/08/24 03:48:15;;;;;;;32.28;28.90;;;19.60;99.90;;;;;;4589702;19;20066;-38
2022/08/24 03:49:46;;;;;;;29.25;26.25;;;19.60;99.90;;;;;;4590314;19;20485;-35
2022/08/24 03:51:19;;;;;;;29.77;26.77;;;19.60;99.90;;;;;;4590812;19;20018;-35
2022/08/24 03:52:50;;;;;;;28.38;25.48;;;19.50;99.90;;;;;;4589211;19;20019;-36
2022/08/24 03:54:21;;;;;;;30.27;27.20;;;19.60;99.90;;;;;;4589184;19;20070;-38
2022/08/24 03:55:52;;;;;;;30.90;27.80;;;19.60;99.90;;;;;;4590264;19;20070;-35
2022/08/24 03:57:23;;;;;;;28.63;25.70;;;19.60;99.90;;;;;;4590673;19;20018;-37
2022/08/24 03:58:55;;;;;;;28.83;25.90;;;19.60;99.90;;;;;;4590079;19;20022;-35
2022/08/24 04:00:26;;;;;;;30.55;27.45;;;19.60;99.90;;;;;;4590425;19;20018;-36
2022/08/24 04:01:57;;;;;;;28.10;25.13;;;19.50;99.90;;;;;;4589010;19;20480;-35
2022/08/24 04:03:28;;;;;;;31.10;28.00;;;19.60;99.90;;;;;;4589582;19;20078;-36
2022/08/24 04:04:59;;;;;;;29.60;26.48;;;19.50;99.90;;;;;;4589918;19;20391;-38
2022/08/24 04:06:30;;;;;;;28.83;25.73;;;19.50;99.90;;;;;;4589476;19;19999;-35
2022/08/24 04:08:02;;;;;;;28.65;25.63;;;19.60;99.90;;;;;;4590067;19;20010;-35
2022/08/24 04:09:34;;;;;;;30.88;27.67;;;19.60;99.90;;;;;;4588726;19;20112;-34
2022/08/24 04:11:08;;;;;;;30.00;26.75;;;19.50;99.90;;;;;;4588978;19;20031;-35
2022/08/24 04:12:39;;;;;;;30.42;27.23;;;19.60;99.90;;;;;;4588716;19;20011;-36
2022/08/24 04:14:10;;;;;;;31.10;27.92;;;19.60;99.90;;;;;;4589409;19;19998;-38
2022/08/24 04:15:41;;;;;;;31.17;27.88;;;19.60;99.90;;;;;;4589348;19;20007;-35
2022/08/24 04:17:13;;;;;;;30.77;27.63;;;19.50;99.90;;;;;;4589111;19;20388;-35
2022/08/24 04:18:44;;;;;;;31.70;28.55;;;19.60;99.90;;;;;;4588934;19;20006;-37
2022/08/24 04:20:15;;;;;;;30.27;27.13;;;19.50;99.90;;;;;;4588574;19;20000;-35
2022/08/24 04:21:46;;;;;;;28.13;25.30;;;19.50;99.90;;;;;;4588635;19;20017;-36
2022/08/24 04:23:17;;;;;;;28.65;25.67;;;19.50;99.90;;;;;;4589542;19;20015;-38
2022/08/24 04:24:49;;;;;;;28.65;25.77;;;19.50;99.90;;;;;;4590299;19;20467;-36
2022/08/24 04:26:23;;;;;;;29.30;26.30;;;19.50;99.90;;;;;;4589480;19;20088;-37
2022/08/24 04:27:54;;;;;;;29.50;26.40;;;19.50;99.90;;;;;;4588725;19;20018;-35
2022/08/24 04:29:26;;;;;;;30.05;26.92;;;19.50;99.90;;;;;;4589444;19;20031;-35
2022/08/24 04:30:57;;;;;;;31.52;28.20;;;19.50;99.90;;;;;;4586374;19;20047;-35
2022/08/24 04:32:32;;;;;;;30.75;27.42;;;19.50;99.90;;;;;;4587315;19;20033;-34
2022/08/24 04:34:05;;;;;;;30.95;27.70;;;19.50;99.90;;;;;;4588740;19;20010;-35
2022/08/24 04:35:41;;;;;;;29.67;26.02;;;19.50;99.90;;;;;;4588409;19;20015;-35
2022/08/24 04:37:13;;;;;;;30.80;27.40;;;19.50;99.90;;;;;;4589353;19;20378;-35
2022/08/24 04:38:45;;;;;;;28.88;25.95;;;19.50;99.90;;;;;;4588230;19;20038;-36
2022/08/24 04:40:17;;;;;;;30.70;27.40;;;19.50;99.90;;;;;;4587289;19;20031;-37
2022/08/24 04:41:48;;;;;;;;;;;19.50;99.90;;;;;;4590498;19;20043;-37
2022/08/24 04:43:19;;;;;;;28.40;25.48;;;19.50;99.90;;;;;;4587709;19;20280;-34
2022/08/24 04:44:50;;;;;;;30.48;27.13;;;19.50;99.90;;;;;;4588106;19;20007;-34
2022/08/24 04:46:23;;;;;;;30.10;26.92;;;19.50;99.90;;;;;;4588679;19;20015;-35
2022/08/24 04:47:54;;;;;;;29.80;26.70;;;19.50;99.90;;;;;;4587614;19;20029;-38
2022/08/24 04:49:26;;;;;;;32.15;28.42;;;19.50;99.90;;;;;;4584851;19;20364;-38
2022/08/24 04:51:00;;;;;;;;;;;19.50;99.90;;;;;;4587914;19;20047;-35
2022/08/24 04:52:32;;;;;;;30.77;27.60;;;19.50;99.90;;;;;;4587293;19;19923;-35
2022/08/24 04:54:06;;;;;;;29.40;26.50;;;19.50;99.90;;;;;;4587117;19;20601;-35
2022/08/24 04:55:45;;;;;;;30.13;27.13;;;19.50;99.90;;;;;;4588433;19;20343;-34
2022/08/24 04:57:17;;;;;;;31.88;28.65;;;19.50;99.90;;;;;;4588493;19;20042;-37
2022/08/24 04:58:49;;;;;;;30.65;27.45;;;19.50;99.90;;;;;;4587858;19;20018;-34
2022/08/24 05:00:21;;;;;;;29.10;25.98;;;19.50;99.90;;;;;;4591913;19;20042;-35
2022/08/24 05:01:52;;;;;;;29.90;26.92;;;19.50;99.90;;;;;;4592759;19;20014;-34
2022/08/24 05:03:23;;;;;;;30.80;27.63;;;19.50;99.90;;;;;;4594159;19;20025;-35
2022/08/24 05:04:55;;;;;;;;;;;19.60;99.90;;;;;;4594575;19;20022;-35
2022/08/24 05:06:28;;;;;;;30.73;27.52;;;19.60;99.90;;;;;;4594377;19;19915;-35
2022/08/24 05:07:59;;;;;;;29.27;26.38;;;19.60;99.90;;;;;;4593512;19;20372;-34
2022/08/24 05:09:30;;;;;;;30.77;27.58;;;19.60;99.90;;;;;;4593231;19;20015;-34
2022/08/24 05:11:05;;;;;;;28.85;25.85;;;19.60;99.90;;;;;;4594392;19;20493;-36
2022/08/24 05:12:37;;;;;;;27.58;24.85;;;19.60;99.90;;;;;;4591630;19;20014;-35
2022/08/24 05:14:09;;;;;;;28.30;25.60;;;19.60;99.90;;;;;;4593748;19;20015;-35
2022/08/24 05:15:41;;;;;;;;;;;19.60;99.90;;;;;;4594117;19;20018;-36
2022/08/24 05:17:13;;;;;;;27.17;24.40;;;19.60;99.90;;;;;;4592971;19;19922;-34
2022/08/24 05:18:45;;;;;;;26.85;24.02;;;19.60;99.90;;;;;;4592968;19;20029;-36
2022/08/24 05:20:16;;;;;;;28.33;25.25;;;19.60;99.90;;;;;;4591911;19;20034;-38
2022/08/24 05:21:47;;;;;;;28.00;25.23;;;19.60;99.90;;;;;;4594340;19;20350;-35
2022/08/24 05:23:18;;;;;;;30.23;27.17;;;19.70;99.90;;;;;;4593659;19;20022;-34
2022/08/24 05:24:50;;;;;;;28.77;25.85;;;19.70;99.90;;;;;;4593597;19;20486;-35
2022/08/24 05:26:23;;;;;;;28.92;25.90;;;19.70;99.90;;;;;;4592028;19;20010;-35
2022/08/24 05:27:54;;;;;;;27.10;24.40;;;19.70;99.90;;;;;;4592803;19;20006;-35
2022/08/24 05:29:26;;;;;;;26.05;23.55;;;19.70;99.90;;;;;;4592644;19;20014;-35
2022/08/24 05:31:09;;;;;;;26.67;23.98;;;19.70;99.90;;;;;;4591434;19;20049;-36
2022/08/24 05:32:40;;;;;;;26.02;23.33;;;19.70;99.90;;;;;;4592320;19;20535;-34
2022/08/24 05:34:12;;;;;;;25.10;22.67;;;19.70;99.90;;;;;;4592690;19;20015;-34
2022/08/24 05:35:43;;;;;;;;;;;19.70;99.90;;;;;;4594742;19;20014;-40
2022/08/24 05:37:15;;;;;;;;;;;19.70;99.90;;;;;;4591785;19;20382;-43
2022/08/24 05:38:46;;;;;;;25.55;23.05;;;19.70;99.90;;;;;;4593173;19;19923;-41
2022/08/24 05:40:18;;;;;;;23.05;20.92;;;19.70;99.90;;;;;;4593139;19;20036;-40
2022/08/24 05:41:49;;;;;;;23.50;21.20;;;19.70;99.90;;;;;;4592507;19;20490;-43
2022/08/24 05:43:21;;;;;;;23.40;21.30;;;19.70;99.90;;;;;;4591904;19;20025;-43
2022/08/24 05:44:52;;;;;;;21.38;19.30;;;19.70;99.90;;;;;;4590074;19;20066;-40
2022/08/24 05:46:23;;;;;;;21.13;19.17;;;19.70;99.90;;;;;;4593472;19;20018;-45
2022/08/24 05:47:54;;;;;;;21.55;19.45;;;19.70;99.90;;;;;;4591785;19;20035;-45
2022/08/24 05:49:26;;;;;;;20.50;18.55;;;19.70;99.90;;;;;;4593544;19;20034;-44
2022/08/24 05:50:58;;;;;;;19.25;17.58;;;19.70;99.90;;;;;;4591725;19;20028;-43
2022/08/24 05:52:35;;;;;;;19.17;17.48;;;19.70;99.90;;;;;;4591764;19;20019;-42
2022/08/24 05:54:12;;;;;;;20.98;19.00;;;19.80;99.90;;;;;;4591702;19;20011;-45
2022/08/24 05:55:43;;;;;;;;;;;19.80;99.90;;;;;;4592591;19;20019;-41
2022/08/24 05:57:15;;;;;;;21.83;19.80;;;19.80;99.90;;;;;;4593390;19;20320;-39
2022/08/24 05:58:46;;;;;;;21.58;19.55;;;19.80;99.90;;;;;;4592148;19;20023;-44
2022/08/24 06:00:17;;;;;;;21.13;19.23;;;19.80;99.90;;;;;;4592491;19;20011;-43
2022/08/24 06:01:49;;;;;;;20.45;18.45;;;19.80;99.90;;;;;;4590257;19;20006;-44
2022/08/24 06:03:20;;;;;;;21.13;19.35;;;19.80;99.90;;;;;;4592660;19;20015;-39
2022/08/24 06:04:51;;;;;;;20.58;18.67;;;19.90;99.90;;;;;;4589634;19;20015;-44
2022/08/24 06:06:23;;;;;;;20.48;18.65;;;19.90;99.90;;;;;;4592420;19;20014;-41
2022/08/24 06:07:54;;;;;;;21.73;19.73;;;19.90;99.90;;;;;;4590661;19;20022;-39
2022/08/24 06:09:26;;;;;;;22.02;19.90;;;19.90;99.90;;;;;;4592666;19;20022;-42
2022/08/24 06:10:57;;;;;;;21.25;19.35;;;19.90;99.90;;;;;;4592419;19;20011;-44
2022/08/24 06:12:28;;;;;;;22.13;20.02;;;19.90;99.90;;;;;;4589282;19;20011;-43
2022/08/24 06:14:02;;;;;;;20.05;18.25;;;19.90;99.90;;;;;;4590565;19;20476;-46
2022/08/24 06:15:34;;;;;;;20.92;19.02;;;19.90;99.90;;;;;;4590202;19;20018;-41
2022/08/24 06:17:06;;;;;;;174.93;27.70;;;19.90;99.90;;;;;;4592096;19;20027;-25
2022/08/24 06:18:38;;;;;;;21.05;19.02;;;19.90;99.90;;;;;;4590873;19;20021;-26
2022/08/24 06:20:09;;;;;;;22.85;20.65;;;19.90;99.90;;;;;;4591388;19;20088;-26
2022/08/24 06:21:41;;;;;;;22.30;20.08;;;19.90;99.90;;;;;;4591810;19;20018;-26
2022/08/24 06:23:12;;;;;;;21.30;19.20;;;19.90;99.90;;;;;;4590744;19;20025;-24
2022/08/24 06:28:24;;;;;;;22.73;20.55;;;20.00;99.90;;;;;;4591456;19;20011;-28
2022/08/24 06:29:57;;;;;;;22.83;20.63;;;20.00;99.90;;;;;;4592120;19;20007;-24
2022/08/24 06:31:28;;;;;;;22.20;20.10;;;19.90;99.90;;;;;;4591167;19;20010;-24
2022/08/24 06:33:01;;;;;;;20.92;18.88;;;20.00;99.90;;;;;;4591084;19;20027;-25
2022/08/24 06:34:33;;;;;;;20.60;18.60;;;20.00;99.90;;;;;;4590911;19;20348;-27
2022/08/24 06:36:05;;;;;;;22.67;20.52;;;20.00;99.90;;;;;;4591571;19;20353;-22
2022/08/24 06:37:36;;;;;;;22.20;20.13;;;20.00;99.90;;;;;;4590163;19;20471;-27
2022/08/24 06:39:07;;;;;;;20.83;18.95;;;20.00;99.90;;;;;;4591259;19;20022;-26
2022/08/24 06:40:39;;;;;;;;;;;20.00;99.90;;;;;;4592405;19;20015;-23
2022/08/24 06:42:10;;;;;;;22.00;19.90;;;20.00;99.90;;;;;;4591833;19;19932;-25
2022/08/24 06:43:42;;;;;;;23.55;21.25;;;20.10;99.90;;;;;;4590878;19;20062;-24
2022/08/24 06:45:13;;;;;;;23.33;21.02;;;20.10;99.90;;;;;;4591759;19;20018;-24
2022/08/24 06:46:44;;;;;;;23.05;20.70;;;20.10;99.90;;;;;;4591770;19;20027;-27
2022/08/24 06:48:15;;;;;;;23.88;21.48;;;20.10;99.90;;;;;;4592109;19;19999;-26
2022/08/24 06:49:47;;;;;;;24.40;21.90;;;20.10;99.90;;;;;;4591469;19;20070;-27
2022/08/24 06:51:18;;;;;;;23.30;21.08;;;20.10;99.90;;;;;;4588585;19;20442;-28
2022/08/24 06:52:49;;;;;;;24.00;21.67;;;20.10;99.90;;;;;;4589289;19;20121;-25
2022/08/24 06:54:21;;;;;;;23.13;20.92;;;20.10;99.90;;;;;;4591086;19;20364;-24
2022/08/24 06:55:56;;;;;;;24.50;22.10;;;20.10;99.90;;;;;;4589815;19;20018;-23
2022/08/24 06:57:27;;;;;;;24.52;21.95;;;20.20;99.90;;;;;;4590984;19;20011;-24
2022/08/24 06:59:01;;;;;;;22.42;20.17;;;20.20;99.90;;;;;;4591449;19;20017;-25
2022/08/24 07:00:32;;;;;;;24.23;21.92;;;20.10;99.90;;;;;;4590788;19;20007;-27
2022/08/24 07:02:03;;;;;;;25.05;22.45;;;20.10;99.90;;;;;;4591458;19;20010;-23
2022/08/24 07:03:35;;;;;;;23.55;21.15;;;20.20;99.90;;;;;;4591800;19;20002;-26
2022/08/24 07:05:06;;;;;;;25.00;22.50;;;20.20;99.90;;;;;;4591132;19;20054;-25
2022/08/24 07:06:37;;;;;;;24.55;22.08;;;20.20;99.90;;;;;;4587958;19;20014;-24
2022/08/24 07:08:09;;;;;;;24.27;21.77;;;20.20;99.90;;;;;;4588011;19;20401;-25
2022/08/24 07:09:40;;;;;;;24.15;21.63;;;20.20;99.90;;;;;;4587906;19;20027;-27
2022/08/24 07:11:16;;;;;;;25.50;23.00;;;20.20;99.90;;;;;;4589799;19;20010;-27
2022/08/24 07:12:47;;;;;;;23.75;21.42;;;20.30;99.90;;;;;;4590187;19;20010;-26
2022/08/24 07:14:20;;;;;;;25.40;22.63;;;20.30;99.90;;;;;;4591092;19;20356;-26
2022/08/24 07:15:52;;;;;;;24.40;21.92;;;20.30;99.90;;;;;;4589857;19;20031;-23
2022/08/24 07:17:23;;;;;;;24.85;22.25;;;20.30;99.90;;;;;;4590592;19;20002;-23
2022/08/24 07:18:54;;;;;;;24.75;22.17;;;20.30;99.90;;;;;;4590950;19;20011;-24
2022/08/24 07:20:25;;;;;;;26.17;23.67;;;20.30;99.90;;;;;;4590658;19;20023;-23
2022/08/24 07:21:57;;;;;;;24.83;22.33;;;20.30;99.90;;;;;;4591029;19;20037;-23
2022/08/24 07:23:28;;;;;;;;;;;20.40;99.90;;;;;;4590222;19;20015;-25
2022/08/24 07:24:59;;;;;;;26.10;23.48;;;20.30;99.90;;;;;;4590682;19;19923;-24
2022/08/24 07:26:31;;;;;;;;;;;20.30;99.90;;;;;;4591991;19;20010;-23
2022/08/24 07:28:02;;;;;;;27.63;24.80;;;20.40;99.90;;;;;;4591314;19;19923;-22
2022/08/24 07:29:33;;;;;;;28.02;24.45;;;20.40;99.90;;;;;;4590323;19;20029;-24
2022/08/24 07:31:08;;;;;;;27.60;24.73;;;20.40;99.90;;;;;;4589284;19;20015;-25
2022/08/24 07:32:40;;;;;;;25.35;22.85;;;20.40;99.90;;;;;;4589379;19;20003;-27
2022/08/24 07:34:11;;;;;;;24.88;22.42;;;20.40;99.90;;;;;;4590393;19;20010;-24
2022/08/24 07:35:43;;;;;;;25.10;22.45;;;20.40;99.90;;;;;;4589252;19;20009;-25
2022/08/24 07:37:14;;;;;;;24.85;22.27;;;20.40;99.90;;;;;;4590108;19;20014;-25
2022/08/24 07:38:45;;;;;;;26.20;23.55;;;20.50;99.90;;;;;;4590906;19;20014;-26
2022/08/24 07:40:17;;;;;;;;;;;20.50;99.90;;;;;;4591393;19;20025;-26
2022/08/24 07:41:52;;;;;;;24.67;22.23;;;20.50;99.90;;;;;;4590433;19;19994;-25
2022/08/24 07:43:23;;;;;;;22.30;20.20;;;20.50;99.90;;;;;;4590686;19;20015;-23
2022/08/24 07:44:54;;;;;;;23.52;21.15;;;20.50;99.90;;;;;;4588859;19;20078;-24
2022/08/24 07:46:26;;;;;;;23.45;21.25;;;20.50;99.90;;;;;;4589689;19;20023;-29
2022/08/24 07:47:57;;;;;;;23.75;21.35;;;20.60;99.90;;;;;;4590021;19;20014;-23
2022/08/24 07:49:28;;;;;;;26.08;23.58;;;20.60;99.90;;;;;;4590590;19;20467;-25
2022/08/24 07:51:07;;;;;;;25.17;22.67;;;20.60;99.90;;;;;;4590273;19;20468;-26
2022/08/24 07:52:38;;;;;;;23.90;21.60;;;20.60;99.90;;;;;;4589304;19;20014;-23
2022/08/24 07:54:09;;;;;;;24.83;22.42;;;20.70;99.90;;;;;;4589956;19;20463;-24
2022/08/24 07:55:40;;;;;;;24.58;22.05;;;20.70;99.90;;;;;;4590528;19;20007;-26
2022/08/24 07:57:11;;;;;;;23.55;21.33;;;20.70;99.90;;;;;;4590526;19;20478;-26
2022/08/24 07:58:43;;;;;;;25.13;22.73;;;20.70;99.90;;;;;;4589956;19;20019;-27